createdAt,value
2018-03-07T00:01:36.870Z,104.00
2018-03-07T00:04:06.780Z,110.23
2018-03-07T00:06:36.695Z,101.87
2018-03-07T00:09:07.026Z,98.53
2018-03-07T00:11:36.839Z,74.43
2018-03-07T00:14:06.751Z,70.70
2018-03-07T00:16:36.663Z,70.80
2018-03-07T00:19:07.190Z,70.43
2018-03-07T00:21:37.186Z,76.17
2018-03-07T00:24:07.942Z,76.83
2018-03-07T00:26:38.884Z,74.17
2018-03-07T00:29:09.601Z,76.17
2018-03-07T00:31:41.182Z,75.60
2018-03-07T00:34:11.100Z,75.07
2018-03-07T00:36:41.812Z,72.80
2018-03-07T00:39:12.334Z,66.90
2018-03-07T00:41:43.108Z,64.27
2018-03-07T00:44:13.800Z,74.50
2018-03-07T00:46:44.318Z,71.20
2018-03-07T00:49:14.962Z,84.10
2018-03-07T00:51:45.337Z,82.03
2018-03-07T00:54:15.999Z,83.73
2018-03-07T00:56:46.563Z,92.93
2018-03-07T00:59:17.150Z,88.80
2018-03-07T01:01:47.925Z,83.80
2018-03-07T01:04:18.998Z,91.40
2018-03-07T01:06:49.296Z,90.40
2018-03-07T01:09:20.287Z,96.97
2018-03-07T01:11:50.267Z,90.20
2018-03-07T01:14:21.300Z,100.90
2018-03-07T01:16:51.827Z,102.73
2018-03-07T01:19:23.541Z,88.43
2018-03-07T01:21:54.067Z,92.40
2018-03-07T01:24:23.944Z,92.60
2018-03-07T01:26:54.772Z,101.13
2018-03-07T01:29:25.220Z,93.20
2018-03-07T01:31:55.735Z,97.63
2018-03-07T01:34:26.350Z,89.37
2018-03-07T01:36:56.775Z,105.83
2018-03-07T01:39:27.344Z,92.90
2018-03-07T01:41:57.940Z,99.73
2018-03-07T01:44:28.446Z,91.00
2018-03-07T01:46:59.014Z,82.60
2018-03-07T01:49:30.073Z,80.50
2018-03-07T01:52:02.924Z,83.57
2018-03-07T01:54:34.427Z,84.40
2018-03-07T01:57:05.119Z,83.27
2018-03-07T01:59:35.654Z,91.33
2018-03-07T02:02:07.381Z,97.23
2018-03-07T02:04:37.934Z,107.83
2018-03-07T02:07:08.825Z,101.27
2018-03-07T02:09:40.939Z,107.37
2018-03-07T02:12:11.570Z,111.77
2018-03-07T02:14:42.563Z,104.27
2018-03-07T02:17:13.368Z,104.97
2018-03-07T02:19:44.803Z,104.50
2018-03-07T02:22:15.716Z,104.97
2018-03-07T02:24:46.351Z,111.77
2018-03-07T02:27:17.332Z,118.90
2018-03-07T02:29:49.460Z,103.50
2018-03-07T02:32:20.410Z,103.23
2018-03-07T02:34:51.345Z,73.93
2018-03-07T02:37:22.122Z,73.30
2018-03-07T02:39:52.666Z,67.77
2018-03-07T02:42:23.676Z,71.40
2018-03-07T02:44:54.535Z,70.83
2018-03-07T02:47:24.306Z,76.60
2018-03-07T02:49:54.931Z,68.73
2018-03-07T02:52:25.647Z,71.40
2018-03-07T02:54:56.947Z,71.60
2018-03-07T02:57:27.542Z,68.30
2018-03-07T02:59:58.545Z,73.80
2018-03-07T03:02:29.522Z,68.97
2018-03-07T03:05:00.337Z,65.70
2018-03-07T03:07:30.986Z,69.17
2018-03-07T03:10:01.729Z,68.47
2018-03-07T03:12:32.163Z,68.90
2018-03-07T03:15:03.263Z,71.63
2018-03-07T03:17:33.887Z,70.33
2018-03-07T03:20:04.078Z,70.93
2018-03-07T03:22:34.983Z,77.67
2018-03-07T03:25:06.119Z,76.63
2018-03-07T03:27:36.818Z,83.87
2018-03-07T03:30:06.970Z,92.63
2018-03-07T03:32:37.606Z,98.83
2018-03-07T03:35:07.835Z,99.13
2018-03-07T03:37:38.721Z,116.27
2018-03-07T03:40:09.363Z,105.50
2018-03-07T03:42:39.763Z,108.00
2018-03-07T03:45:09.745Z,114.77
2018-03-07T03:47:40.511Z,102.03
2018-03-07T03:50:11.107Z,124.80
2018-03-07T03:52:41.434Z,107.63
2018-03-07T03:55:12.246Z,112.17
2018-03-07T03:57:43.459Z,114.83
2018-03-07T04:00:14.294Z,116.17
2018-03-07T04:02:44.988Z,116.30
2018-03-07T04:05:16.094Z,118.00
2018-03-07T04:07:46.776Z,114.40
2018-03-07T04:10:17.944Z,121.63
2018-03-07T04:12:48.541Z,111.87
2018-03-07T04:15:19.257Z,91.50
2018-03-07T04:17:49.613Z,84.63
2018-03-07T04:20:20.237Z,88.27
2018-03-07T04:22:50.140Z,90.17
2018-03-07T04:25:20.783Z,89.37
2018-03-07T04:27:51.291Z,88.57
2018-03-07T04:30:22.011Z,91.50
2018-03-07T04:32:51.968Z,94.23
2018-03-07T04:35:22.532Z,85.80
2018-03-07T04:37:52.589Z,82.67
2018-03-07T04:40:23.137Z,83.53
2018-03-07T04:42:54.485Z,89.13
2018-03-07T04:45:24.914Z,93.00
2018-03-07T04:47:55.555Z,85.93
2018-03-07T04:50:26.279Z,92.07
2018-03-07T04:52:57.179Z,88.87
2018-03-07T04:55:27.517Z,107.47
2018-03-07T04:57:58.220Z,119.50
2018-03-07T05:00:29.544Z,116.33
2018-03-07T05:02:59.852Z,122.47
2018-03-07T05:05:30.354Z,108.70
2018-03-07T05:08:00.812Z,115.27
2018-03-07T05:10:31.458Z,120.53
2018-03-07T05:13:02.178Z,126.87
2018-03-07T05:15:32.148Z,131.90
2018-03-07T05:18:03.028Z,130.33
2018-03-07T05:20:34.053Z,131.33
2018-03-07T05:23:06.023Z,127.30
2018-03-07T05:25:36.572Z,129.53
2018-03-07T05:28:07.384Z,115.27
2018-03-07T05:30:38.097Z,116.30
2018-03-07T05:33:08.871Z,118.63
2018-03-07T05:35:39.625Z,130.30
2018-03-07T05:38:10.330Z,125.43
2018-03-07T05:40:40.887Z,127.20
2018-03-07T05:43:11.254Z,136.13
2018-03-07T05:45:41.695Z,142.53
2018-03-07T05:48:12.396Z,133.93
2018-03-07T05:50:42.833Z,142.33
2018-03-07T05:53:13.397Z,132.67
2018-03-07T05:55:44.037Z,132.23
2018-03-07T05:58:13.954Z,131.53
2018-03-07T06:00:44.611Z,134.47
2018-03-07T06:03:15.316Z,135.57
2018-03-07T06:05:46.248Z,131.43
2018-03-07T06:08:17.065Z,126.07
2018-03-07T06:10:47.925Z,123.57
2018-03-07T06:13:18.890Z,122.83
2018-03-07T06:15:49.657Z,115.40
2018-03-07T06:18:20.276Z,109.37
2018-03-07T06:20:50.998Z,111.87
2018-03-07T06:23:21.697Z,71.13
2018-03-07T06:25:52.427Z,67.53
2018-03-07T06:28:22.911Z,63.30
2018-03-07T06:30:53.426Z,56.40
2018-03-07T06:33:24.265Z,62.60
2018-03-07T06:35:55.394Z,70.40
2018-03-07T06:38:26.076Z,76.70
2018-03-07T06:40:56.534Z,66.37
2018-03-07T06:43:26.433Z,67.53
2018-03-07T06:45:57.229Z,66.60
2018-03-07T06:48:28.003Z,65.83
2018-03-07T06:50:58.511Z,57.03
2018-03-07T06:53:29.270Z,60.20
2018-03-07T06:56:00.268Z,61.30
2018-03-07T06:58:31.277Z,68.47
2018-03-07T07:01:01.171Z,64.50
2018-03-07T07:03:32.071Z,65.63
2018-03-07T07:06:01.919Z,66.60
2018-03-07T07:08:32.648Z,76.00
2018-03-07T07:11:03.802Z,62.07
2018-03-07T07:13:34.420Z,74.53
2018-03-07T07:16:05.020Z,65.60
2018-03-07T07:18:36.977Z,49.77
2018-03-07T07:21:08.754Z,48.10
2018-03-07T07:23:39.123Z,56.97
2018-03-07T07:26:10.455Z,56.77
2018-03-07T07:28:41.151Z,56.20
2018-03-07T07:31:11.932Z,63.07
2018-03-07T07:33:42.049Z,52.80
2018-03-07T07:36:12.730Z,52.20
2018-03-07T07:38:44.196Z,51.13
2018-03-07T07:41:15.165Z,59.23
2018-03-07T07:43:46.171Z,59.17
2018-03-07T07:46:16.785Z,63.17
2018-03-07T07:48:47.349Z,58.10
2018-03-07T07:51:18.228Z,57.87
2018-03-07T07:53:49.305Z,57.57
2018-03-07T07:56:20.034Z,51.77
2018-03-07T07:58:51.331Z,54.17
2018-03-07T08:01:22.852Z,53.53
2018-03-07T08:03:53.939Z,46.17
2018-03-07T08:06:24.684Z,51.30
2018-03-07T08:08:55.564Z,46.73
2018-03-07T08:11:26.617Z,52.07
2018-03-07T08:13:57.217Z,44.90
2018-03-07T08:16:28.131Z,43.77
2018-03-07T08:18:59.250Z,53.93
2018-03-07T08:21:29.841Z,53.37
2018-03-07T08:23:59.919Z,56.77
2018-03-07T08:26:30.538Z,44.87
2018-03-07T08:29:01.468Z,44.17
2018-03-07T08:31:31.972Z,47.67
2018-03-07T08:34:02.697Z,47.33
2018-03-07T08:36:33.577Z,48.17
2018-03-07T08:39:04.208Z,54.93
2018-03-07T08:41:34.928Z,51.97
2018-03-07T08:44:04.846Z,58.80
2018-03-07T08:46:35.765Z,48.43
2018-03-07T08:49:06.480Z,48.63
2018-03-07T08:51:37.201Z,49.27
2018-03-07T08:54:08.132Z,49.30
2018-03-07T08:56:38.863Z,53.77
2018-03-07T08:59:09.497Z,51.77
2018-03-07T09:01:40.176Z,47.63
2018-03-07T09:04:10.579Z,49.13
2018-03-07T09:06:41.367Z,51.63
2018-03-07T09:09:11.281Z,50.40
2018-03-07T09:11:42.673Z,47.23
2018-03-07T09:14:13.876Z,56.07
2018-03-07T09:16:45.015Z,56.33
2018-03-07T09:19:17.183Z,51.80
2018-03-07T09:21:48.627Z,54.23
2018-03-07T09:24:19.686Z,48.27
2018-03-07T09:26:50.601Z,64.13
2018-03-07T09:29:21.146Z,70.50
2018-03-07T09:31:52.269Z,62.70
2018-03-07T09:34:23.104Z,81.60
2018-03-07T09:36:54.125Z,61.17
2018-03-07T09:39:25.121Z,81.77
2018-03-07T09:41:55.518Z,73.17
2018-03-07T09:44:25.535Z,65.03
2018-03-07T09:46:56.262Z,70.20
2018-03-07T09:49:26.729Z,67.90
2018-03-07T09:51:57.509Z,62.47
2018-03-07T09:54:28.230Z,68.97
2018-03-07T09:56:58.700Z,63.40
2018-03-07T09:59:29.340Z,51.13
2018-03-07T10:02:00.182Z,61.43
2018-03-07T10:04:30.271Z,50.83
2018-03-07T10:07:01.411Z,51.00
2018-03-07T10:09:32.263Z,51.90
2018-03-07T10:12:02.787Z,57.10
2018-03-07T10:14:33.319Z,44.90
2018-03-07T10:17:04.041Z,47.20
2018-03-07T10:19:34.664Z,47.97
2018-03-07T10:22:04.715Z,49.33
2018-03-07T10:24:35.473Z,48.07
2018-03-07T10:27:05.867Z,42.17
2018-03-07T10:29:36.476Z,47.93
2018-03-07T10:32:08.486Z,43.03
2018-03-07T10:34:39.165Z,42.40
2018-03-07T10:37:09.836Z,45.30
2018-03-07T10:39:41.053Z,39.60
2018-03-07T10:42:11.870Z,41.87
2018-03-07T10:44:42.864Z,48.50
2018-03-07T10:47:13.692Z,49.20
2018-03-07T10:49:44.543Z,59.53
2018-03-07T10:52:15.378Z,60.17
2018-03-07T10:54:47.003Z,60.90
2018-03-07T10:57:17.618Z,63.43
2018-03-07T10:59:48.376Z,56.30
2018-03-07T11:02:19.067Z,54.43
2018-03-07T11:11:38.884Z,46.83
2018-03-07T11:14:09.680Z,52.70
2018-03-07T11:16:40.264Z,44.67
2018-03-07T11:19:11.563Z,47.43
2018-03-07T11:21:41.981Z,48.73
2018-03-07T11:24:12.813Z,45.67
2018-03-07T11:26:43.448Z,47.90
2018-03-07T11:29:14.731Z,51.53
2018-03-07T11:31:45.406Z,53.93
2018-03-07T11:34:16.208Z,48.43
2018-03-07T11:36:46.736Z,48.00
2018-03-07T11:39:17.629Z,46.57
2018-03-07T11:41:48.118Z,48.37
2018-03-07T11:44:18.638Z,48.03
2018-03-07T11:46:49.592Z,45.97
2018-03-07T11:49:20.411Z,45.17
2018-03-07T11:51:50.462Z,48.20
2018-03-07T11:54:21.923Z,45.57
2018-03-07T11:56:52.672Z,45.03
2018-03-07T11:59:23.514Z,42.00
2018-03-07T12:01:54.138Z,40.70
2018-03-07T12:04:25.102Z,41.60
2018-03-07T12:06:55.608Z,43.03
2018-03-07T12:09:26.846Z,41.10
2018-03-07T12:11:57.348Z,41.27
2018-03-07T12:14:28.456Z,41.10
2018-03-07T12:16:59.233Z,40.13
2018-03-07T12:19:30.112Z,40.33
2018-03-07T12:22:00.430Z,43.47
2018-03-07T12:24:30.855Z,37.20
2018-03-07T12:27:01.489Z,38.53
2018-03-07T12:29:32.006Z,41.87
2018-03-07T12:32:02.436Z,37.63
2018-03-07T12:34:32.550Z,40.57
2018-03-07T12:37:03.266Z,45.07
2018-03-07T12:39:34.252Z,45.43
2018-03-07T12:42:04.755Z,43.97
2018-03-07T12:44:35.801Z,41.43
2018-03-07T12:47:06.532Z,42.30
2018-03-07T12:49:37.269Z,36.00
2018-03-07T12:52:07.709Z,42.53
2018-03-07T12:54:38.276Z,39.00
2018-03-07T12:57:08.925Z,44.53
2018-03-07T12:59:39.487Z,40.07
2018-03-07T13:02:09.922Z,39.60
2018-03-07T13:04:40.758Z,47.90
2018-03-07T13:07:11.083Z,44.07
2018-03-07T13:09:42.482Z,43.47
2018-03-07T13:12:13.126Z,47.43
2018-03-07T13:14:43.376Z,41.13
2018-03-07T13:17:14.006Z,44.93
2018-03-07T13:19:44.760Z,41.53
2018-03-07T13:22:15.395Z,38.17
2018-03-07T13:24:46.122Z,38.97
2018-03-07T13:27:16.238Z,35.50
2018-03-07T13:29:46.862Z,37.80
2018-03-07T13:32:17.384Z,36.30
2018-03-07T13:34:49.363Z,43.53
2018-03-07T13:37:20.827Z,34.30
2018-03-07T13:39:51.980Z,32.90
2018-03-07T13:42:23.654Z,40.10
2018-03-07T13:44:54.715Z,42.13
2018-03-07T13:47:25.602Z,44.30
2018-03-07T13:49:56.477Z,43.23
2018-03-07T13:52:27.877Z,42.73
2018-03-07T13:54:58.416Z,40.57
2018-03-07T13:57:29.281Z,40.23
2018-03-07T14:00:00.384Z,38.73
2018-03-07T14:02:30.790Z,40.30
2018-03-07T14:05:02.156Z,37.67
2018-03-07T14:07:32.716Z,41.90
2018-03-07T14:10:03.215Z,37.40
2018-03-07T14:12:33.881Z,44.17
2018-03-07T14:15:04.870Z,34.30
2018-03-07T14:17:35.599Z,39.90
2018-03-07T14:20:06.814Z,36.10
2018-03-07T14:22:37.312Z,35.53
2018-03-07T14:25:07.925Z,34.87
2018-03-07T14:27:38.683Z,35.73
2018-03-07T14:30:09.374Z,28.20
2018-03-07T14:32:40.020Z,33.97
2018-03-07T14:35:10.870Z,30.70
2018-03-07T14:37:42.031Z,30.67
2018-03-07T14:40:12.170Z,32.20
2018-03-07T14:42:42.762Z,30.43
2018-03-07T14:45:13.521Z,33.27
2018-03-07T14:47:43.936Z,29.43
2018-03-07T14:50:15.291Z,31.27
2018-03-07T14:52:46.084Z,28.30
2018-03-07T14:55:17.414Z,28.37
2018-03-07T14:57:47.498Z,34.13
2018-03-07T15:00:18.216Z,28.50
2018-03-07T15:02:49.247Z,32.53
2018-03-07T15:05:19.470Z,28.13
2018-03-07T15:07:50.680Z,27.50
2018-03-07T15:10:21.560Z,32.57
2018-03-07T15:12:52.319Z,27.77
2018-03-07T15:15:24.023Z,30.87
2018-03-07T15:17:54.848Z,31.43
2018-03-07T15:20:25.435Z,25.03
2018-03-07T15:22:56.270Z,31.03
2018-03-07T15:25:27.192Z,29.90
2018-03-07T15:27:58.727Z,25.30
2018-03-07T15:30:29.958Z,27.40
2018-03-07T15:33:01.346Z,22.73
2018-03-07T15:35:32.184Z,22.33
2018-03-07T15:38:02.701Z,28.47
2018-03-07T15:40:33.645Z,25.20
2018-03-07T15:43:04.800Z,25.87
2018-03-07T15:45:35.326Z,25.23
2018-03-07T15:48:07.179Z,25.77
2018-03-07T15:50:38.148Z,27.73
2018-03-07T15:53:08.966Z,28.80
2018-03-07T15:55:39.800Z,26.13
2018-03-07T15:58:10.633Z,26.90
2018-03-07T16:00:41.428Z,32.80
2018-03-07T16:03:11.792Z,25.30
2018-03-07T16:05:42.513Z,30.40
2018-03-07T16:08:13.815Z,26.40
2018-03-07T16:10:44.672Z,29.27
2018-03-07T16:13:15.541Z,28.77
2018-03-07T16:15:45.352Z,29.37
2018-03-07T16:18:15.767Z,29.67
2018-03-07T16:20:46.410Z,25.37
2018-03-07T16:23:17.305Z,28.47
2018-03-07T16:25:47.968Z,29.20
2018-03-07T16:28:18.703Z,29.93
2018-03-07T16:30:49.109Z,28.93
2018-03-07T16:33:20.080Z,26.00
2018-03-07T16:35:50.343Z,26.23
2018-03-07T16:38:20.914Z,27.23
2018-03-07T16:40:51.662Z,28.43
2018-03-07T16:43:22.372Z,27.83
2018-03-07T16:45:52.115Z,27.47
2018-03-07T16:48:21.931Z,24.60
2018-03-07T16:50:51.742Z,26.43
2018-03-07T16:53:21.657Z,30.97
2018-03-07T16:55:51.574Z,28.13
2018-03-07T16:58:21.395Z,31.07
2018-03-07T17:00:51.300Z,30.20
2018-03-07T17:03:21.219Z,28.57
2018-03-07T17:05:51.096Z,24.40
2018-03-07T17:08:20.950Z,26.90
2018-03-07T17:10:51.371Z,32.10
2018-03-07T17:13:21.390Z,29.83
2018-03-07T17:15:51.140Z,29.80
2018-03-07T17:18:21.018Z,25.23
2018-03-07T17:20:50.828Z,35.60
2018-03-07T17:23:20.746Z,34.97
2018-03-07T17:25:50.553Z,31.10
2018-03-07T17:28:20.375Z,30.33
2018-03-07T17:30:50.254Z,34.57
2018-03-07T17:33:20.100Z,29.47
2018-03-07T17:35:49.915Z,31.10
2018-03-07T17:38:19.823Z,24.40
2018-03-07T17:40:49.649Z,23.13
2018-03-07T17:43:19.557Z,25.47
2018-03-07T17:45:50.093Z,26.70
2018-03-07T17:48:19.995Z,27.37
2018-03-07T17:50:50.056Z,30.83
2018-03-07T17:53:19.933Z,26.37
2018-03-07T17:55:49.744Z,25.20
2018-03-07T17:58:19.551Z,22.90
2018-03-07T18:00:49.358Z,21.33
2018-03-07T18:03:19.192Z,20.03
2018-03-07T18:05:49.611Z,20.50
2018-03-07T18:08:19.385Z,22.87
2018-03-07T18:10:49.362Z,18.83
2018-03-07T18:13:19.354Z,19.60
2018-03-07T18:15:49.274Z,22.80
2018-03-07T18:18:19.076Z,21.10
2018-03-07T18:20:48.995Z,22.00
2018-03-07T18:23:18.809Z,24.43
2018-03-07T18:25:48.723Z,24.10
2018-03-07T18:28:18.635Z,24.43
2018-03-07T18:30:48.448Z,22.73
2018-03-07T18:33:18.485Z,28.43
2018-03-07T18:35:48.737Z,26.47
2018-03-07T18:38:18.728Z,29.77
2018-03-07T18:40:48.818Z,28.67
2018-03-07T18:43:18.643Z,32.30
2018-03-07T18:45:48.655Z,28.63
2018-03-07T18:48:18.574Z,26.03
2018-03-07T18:50:48.501Z,28.27
2018-03-07T18:53:18.303Z,30.40
2018-03-07T18:55:48.216Z,26.43
2018-03-07T18:58:18.075Z,25.00
2018-03-07T19:00:48.048Z,23.60
2018-03-07T19:03:17.859Z,25.47
2018-03-07T19:05:47.886Z,24.47
2018-03-07T19:08:17.994Z,21.90
2018-03-07T19:10:48.020Z,20.23
2018-03-07T19:13:17.940Z,20.33
2018-03-07T19:16:02.693Z,23.20
2018-03-07T19:18:32.623Z,21.33
2018-03-07T19:21:02.520Z,18.30
2018-03-07T19:23:32.336Z,20.20
2018-03-07T19:26:02.153Z,21.33
2018-03-07T19:28:32.070Z,19.73
2018-03-07T19:31:01.877Z,21.87
2018-03-07T19:33:31.794Z,24.03
2018-03-07T19:36:01.605Z,21.00
2018-03-07T19:38:31.520Z,20.77
2018-03-07T19:41:01.327Z,19.13
2018-03-07T19:43:31.147Z,18.00
2018-03-07T19:46:01.178Z,17.10
2018-03-07T19:48:30.981Z,21.53
2018-03-07T19:51:00.884Z,21.80
2018-03-07T19:53:30.723Z,21.23
2018-03-07T19:56:00.616Z,22.63
2018-03-07T19:58:30.438Z,36.67
2018-03-07T20:01:00.339Z,60.60
2018-03-07T20:03:30.182Z,61.60
2018-03-07T20:05:59.970Z,82.47
2018-03-07T20:08:30.098Z,69.13
2018-03-07T20:10:59.903Z,68.80
2018-03-07T20:13:29.918Z,70.13
2018-03-07T20:15:59.734Z,63.13
2018-03-07T20:18:29.643Z,61.47
2018-03-07T20:20:59.433Z,56.70
2018-03-07T20:23:29.373Z,60.80
2018-03-07T20:25:59.403Z,60.60
2018-03-07T20:28:29.200Z,61.03
2018-03-07T20:30:59.014Z,63.57
2018-03-07T20:33:28.826Z,73.43
2018-03-07T20:35:59.902Z,87.50
2018-03-07T20:38:29.824Z,97.40
2018-03-07T20:40:59.716Z,92.13
2018-03-07T20:43:29.714Z,91.10
2018-03-07T20:45:59.750Z,95.80
2018-03-07T20:48:29.645Z,111.77
2018-03-07T20:51:00.470Z,104.63
2018-03-07T20:53:30.398Z,107.43
2018-03-07T20:56:00.189Z,102.40
2018-03-07T20:58:30.039Z,88.67
2018-03-07T21:00:59.807Z,84.57
2018-03-07T21:03:29.651Z,73.40
2018-03-07T21:05:59.444Z,80.10
2018-03-07T21:08:29.281Z,73.20
2018-03-07T21:10:59.089Z,64.80
2018-03-07T21:13:28.897Z,68.60
2018-03-07T21:15:58.714Z,70.47
2018-03-07T21:18:28.537Z,64.47
2018-03-07T21:20:58.336Z,76.13
2018-03-07T21:23:28.174Z,70.17
2018-03-07T21:25:58.181Z,63.53
2018-03-07T21:28:27.992Z,54.87
2018-03-07T21:30:57.805Z,53.47
2018-03-07T21:33:27.716Z,55.60
2018-03-07T21:35:57.630Z,51.33
2018-03-07T21:38:27.638Z,52.90
2018-03-07T21:40:57.461Z,52.27
2018-03-07T21:43:27.369Z,52.90
2018-03-07T21:45:57.394Z,48.20
2018-03-07T21:48:27.204Z,49.63
2018-03-07T21:50:57.019Z,49.67
2018-03-07T21:53:26.926Z,50.87
2018-03-07T21:55:56.748Z,48.90
2018-03-07T21:58:26.557Z,47.47
2018-03-07T22:00:56.364Z,47.17
2018-03-07T22:03:26.277Z,47.97
2018-03-07T22:05:56.199Z,49.13
2018-03-07T22:08:26.008Z,47.27
2018-03-07T22:10:55.823Z,45.93
2018-03-07T22:13:25.629Z,49.37
2018-03-07T22:15:55.446Z,49.37
2018-03-07T22:18:25.256Z,47.67
2018-03-07T22:20:55.699Z,52.73
2018-03-07T22:23:27.072Z,50.23
2018-03-07T22:25:57.610Z,43.20
2018-03-07T22:28:28.193Z,43.77
2018-03-07T22:30:59.047Z,39.33
2018-03-07T22:33:29.459Z,48.47
2018-03-07T22:36:00.187Z,50.83
2018-03-07T22:38:30.767Z,47.83
2018-03-07T22:41:01.068Z,43.20
2018-03-07T22:43:32.101Z,45.17
2018-03-07T22:46:02.667Z,46.93
2018-03-07T22:48:33.325Z,51.77
2018-03-07T22:51:04.057Z,44.63
2018-03-07T22:53:34.911Z,35.47
2018-03-07T22:56:05.527Z,37.10
2018-03-07T22:58:35.785Z,48.03
2018-03-07T23:01:05.693Z,48.83
2018-03-07T23:03:36.246Z,49.17
2018-03-07T23:06:06.629Z,47.60
2018-03-07T23:08:37.391Z,43.57
2018-03-07T23:11:07.802Z,44.70
2018-03-07T23:13:38.890Z,49.97
2018-03-07T23:16:09.378Z,57.07
2018-03-07T23:18:40.548Z,47.50
2018-03-07T23:21:11.260Z,53.97
2018-03-07T23:23:42.005Z,58.23
2018-03-07T23:26:11.883Z,58.83
2018-03-07T23:28:42.861Z,53.20
2018-03-07T23:31:13.345Z,49.83
2018-03-07T23:33:43.776Z,53.30
2018-03-07T23:36:14.143Z,51.57
2018-03-07T23:38:44.761Z,60.87
2018-03-07T23:41:15.667Z,59.93
2018-03-07T23:43:46.539Z,59.33
2018-03-07T23:46:17.220Z,50.63
2018-03-07T23:48:47.588Z,56.93
2018-03-07T23:51:18.235Z,54.03
2018-03-07T23:53:48.647Z,46.33
2018-03-07T23:56:19.404Z,56.40
2018-03-07T23:58:50.193Z,43.83
